Aviation Digital Data Service (ADDS)

Output produced by METARs form (0329 UTC 03 July 2022)
found at http://www.aviationweather.gov/metar/data/
 
KRNH 022325Z 0300/0324 VRB03KT P6SM SCT200 
     FM031400 17006KT P6SM FEW070 SCT200